Time;durP1;ratioP1;P1;durP2;ratioP2;P2;SDS_P1;SDS_P2;PMS_P1;PMS_P2;Temp;Humidity;BMP_temperature;BMP_pressure;BME280_temperature;BME280_humidity;BME280_pressure;Samples;Min_cycle;Max_cycle;Signal;HPM_P1;HPM_P2
2022/07/02 00:00:56;;;;;;;9.77;4.80;;;;;;;14.15;78.04;101983.69;4975498;28;20031;-86
2022/07/02 00:03:37;;;;;;;8.55;4.80;;;;;;;14.14;77.05;101986.44;4972048;28;20022;-87
2022/07/02 00:06:04;;;;;;;11.02;4.72;;;;;;;14.09;77.82;101980.44;4969181;28;20022;-86
2022/07/02 00:08:30;;;;;;;11.88;5.07;;;;;;;14.07;78.10;101975.16;4968525;28;20721;-87
2022/07/02 00:10:59;;;;;;;12.45;5.03;;;;;;;14.02;77.90;101985.22;4969814;28;20430;-87
2022/07/02 00:13:26;;;;;;;10.10;4.85;;;;;;;14.01;78.28;101987.97;4966043;28;20034;-87
2022/07/02 00:15:51;;;;;;;9.07;5.25;;;;;;;13.93;78.32;101972.28;4965856;28;20681;-87
2022/07/02 00:18:18;;;;;;;11.00;5.07;;;;;;;13.91;78.11;101975.00;4968709;28;20308;-87
2022/07/02 00:20:44;;;;;;;11.68;4.57;;;;;;;13.87;78.03;101976.06;4969028;28;20019;-87
2022/07/02 00:23:10;;;;;;;10.15;5.28;;;;;;;13.79;78.16;101970.22;4966248;28;20106;-87
2022/07/02 00:25:41;;;;;;;11.00;5.47;;;;;;;13.81;79.22;101979.06;4968748;28;20046;-87
2022/07/02 00:28:11;;;;;;;12.90;5.63;;;;;;;13.75;78.87;101971.28;4968147;28;20088;-87
2022/07/02 00:30:38;;;;;;;12.93;5.68;;;;;;;13.67;78.94;101966.31;4966176;28;20445;-87
2022/07/02 00:33:03;;;;;;;10.20;4.93;;;;;;;13.69;79.32;101983.16;4969295;28;20023;-87
2022/07/02 00:35:29;;;;;;;11.75;5.18;;;;;;;13.67;79.57;101979.69;4971912;28;20093;-87
2022/07/02 00:37:55;;;;;;;10.95;5.95;;;;;;;13.65;79.98;101981.56;4975078;28;20031;-87
2022/07/02 00:40:21;;;;;;;10.73;5.68;;;;;;;13.61;79.32;101979.09;4974427;28;20046;-87
2022/07/02 00:42:47;;;;;;;13.90;6.03;;;;;;;13.56;79.63;101976.63;4976346;28;20051;-87
2022/07/02 00:45:13;;;;;;;11.05;5.85;;;;;;;13.55;79.71;101982.94;4979550;28;20039;-87
2022/07/02 00:47:41;;;;;;;12.93;6.38;;;;;;;13.52;79.99;101987.53;4986409;28;20045;-87
2022/07/02 00:50:07;;;;;;;12.15;6.28;;;;;;;13.48;80.92;101973.44;4990426;28;20121;-87
2022/07/02 00:52:32;;;;;;;14.70;7.05;;;;;;;13.44;80.06;101980.72;4987816;28;20035;-88
2022/07/02 00:54:58;;;;;;;12.88;6.00;;;;;;;13.39;80.28;101972.03;4977850;28;20035;-87
2022/07/02 00:57:23;;;;;;;9.80;5.85;;;;;;;13.38;80.16;101973.00;4970396;28;20026;-87
2022/07/02 00:59:48;;;;;;;11.02;6.22;;;;;;;13.38;80.46;101969.44;4973375;28;20041;-87
2022/07/02 01:02:15;;;;;;;9.85;6.07;;;;;;;13.37;79.93;101973.91;4974825;28;20380;-87
2022/07/02 01:04:41;;;;;;;9.20;5.57;;;;;;;13.31;79.70;101968.84;4991519;28;20051;-87
2022/07/02 01:07:08;;;;;;;8.88;5.03;;;;;;;13.28;80.23;101971.63;4977017;28;20087;-87
2022/07/02 01:12:24;;;;;;;12.73;5.60;;;;;;;13.21;80.59;101968.34;4972860;28;20049;-87
2022/07/02 01:14:51;;;;;;;11.13;5.93;;;;;;;13.20;80.52;101960.38;4971552;28;20042;-87
2022/07/02 01:17:17;;;;;;;10.82;5.90;;;;;;;13.18;80.60;101956.94;4978773;28;20094;-87
2022/07/02 01:19:42;;;;;;;8.35;5.85;;;;;;;13.19;80.76;101966.66;4967349;28;20065;-87
2022/07/02 01:22:12;;;;;;;10.23;5.68;;;;;;;13.13;81.03;101958.94;4968517;28;20559;-87
2022/07/02 01:24:38;;;;;;;9.32;6.50;;;;;;;13.11;80.81;101960.78;4966010;28;20081;-87
2022/07/02 01:27:04;;;;;;;8.90;6.65;;;;;;;13.03;80.90;101954.91;4966246;28;20093;-87
2022/07/02 01:29:29;;;;;;;8.63;7.00;;;;;;;13.06;81.19;101957.47;4966957;28;20019;-87
2022/07/02 01:31:55;;;;;;;9.07;5.90;;;;;;;12.98;80.75;101955.09;4967966;28;20106;-87
2022/07/02 01:34:21;;;;;;;8.15;5.90;;;;;;;12.97;81.29;101958.72;4966209;28;20027;-87
2022/07/02 01:36:47;;;;;;;8.25;5.57;;;;;;;12.95;81.72;101965.91;4968305;28;20038;-87
2022/07/02 01:39:12;;;;;;;8.18;4.85;;;;;;;12.94;81.11;101958.84;4966033;28;20034;-87
2022/07/02 01:41:40;;;;;;;5.95;4.20;;;;;;;12.90;81.81;101960.78;4969713;28;20121;-87
2022/07/02 01:44:07;;;;;;;6.22;3.63;;;;;;;12.87;81.03;101966.25;4965719;28;20029;-87
2022/07/02 01:46:33;;;;;;;6.70;3.95;;;;;;;12.88;81.28;101968.00;4968281;28;20039;-87
2022/07/02 01:48:59;;;;;;;7.85;4.28;;;;;;;12.86;80.92;101967.19;4969194;28;20101;-87
2022/07/02 01:51:24;;;;;;;7.63;3.90;;;;;;;12.84;80.96;101968.22;4968523;28;20042;-87
2022/07/02 01:53:49;;;;;;;5.40;4.20;;;;;;;12.84;81.27;101969.06;4969107;28;20030;-87
2022/07/02 01:56:15;;;;;;;7.50;4.72;;;;;;;12.79;81.18;101963.06;4967906;28;20058;-87
2022/07/02 01:58:40;;;;;;;8.60;4.32;;;;;;;12.80;81.50;101971.94;4966096;28;20523;-87
2022/07/02 02:01:05;;;;;;;7.15;4.47;;;;;;;12.77;81.23;101964.91;4967742;28;20022;-87
2022/07/02 02:03:31;;;;;;;6.97;4.53;;;;;;;12.76;81.64;101960.50;4967978;28;20074;-87
2022/07/02 02:05:56;;;;;;;8.13;4.50;;;;;;;12.74;82.06;101961.50;4965681;28;20057;-88
2022/07/02 02:08:21;;;;;;;7.55;4.68;;;;;;;12.74;82.17;101965.03;4961712;28;20480;-87
2022/07/02 02:10:46;;;;;;;5.15;4.40;;;;;;;12.70;82.20;101958.94;4976405;28;20501;-87
2022/07/02 02:13:12;;;;;;;7.65;4.50;;;;;;;12.66;82.36;101956.47;4964384;28;20031;-87
2022/07/02 02:15:37;;;;;;;7.47;4.53;;;;;;;12.66;82.22;101959.13;4965970;28;20077;-87
2022/07/02 02:18:03;;;;;;;7.80;4.55;;;;;;;12.63;82.75;101969.97;4966304;28;20027;-87
2022/07/02 02:20:28;;;;;;;7.80;4.68;;;;;;;12.60;82.65;101962.94;4966619;28;20031;-87
2022/07/02 02:22:53;;;;;;;7.65;5.10;;;;;;;12.58;82.34;101962.16;4967649;28;20034;-88
2022/07/02 02:25:19;;;;;;;6.60;4.35;;;;;;;12.56;82.67;101961.34;4965954;28;20041;-87
2022/07/02 02:27:44;;;;;;;7.80;4.50;;;;;;;12.46;82.42;101958.19;4961338;28;20397;-86
2022/07/02 02:30:10;;;;;;;9.45;4.72;;;;;;;12.49;82.83;101965.19;4968676;28;20528;-87
2022/07/02 02:32:36;;;;;;;6.85;4.55;;;;;;;12.45;83.21;101961.75;4966565;28;20054;-87
2022/07/02 02:35:03;;;;;;;10.30;4.82;;;;;;;12.46;83.05;101968.00;4962264;28;20019;-87
2022/07/02 02:37:29;;;;;;;6.88;4.75;;;;;;;12.44;83.21;101965.38;4968211;28;20027;-87
2022/07/02 02:39:54;;;;;;;8.05;4.95;;;;;;;12.43;83.16;101971.66;4966809;28;20023;-87
2022/07/02 02:42:19;;;;;;;6.65;4.38;;;;;;;12.41;83.59;101969.97;4967883;28;20031;-87
2022/07/02 02:44:44;;;;;;;6.15;4.70;;;;;;;12.37;83.55;101965.69;4968902;28;20053;-87
2022/07/02 02:47:10;;;;;;;6.18;4.88;;;;;;;12.37;82.95;101969.25;4965434;28;20444;-87
2022/07/02 02:49:35;;;;;;;6.93;4.90;;;;;;;12.34;83.11;101966.69;4970897;28;20051;-87
2022/07/02 02:52:00;;;;;;;8.32;4.65;;;;;;;12.32;83.07;101965.88;4970466;28;20035;-86
2022/07/02 02:54:25;;;;;;;7.60;4.95;;;;;;;12.32;82.63;101971.22;4969651;28;20030;-87
2022/07/02 02:56:51;;;;;;;7.28;4.60;;;;;;;12.29;82.72;101968.69;4966742;28;20018;-86
2022/07/02 02:59:16;;;;;;;8.65;4.35;;;;;;;12.22;82.37;101956.50;4971293;28;20033;-87
2022/07/02 03:01:41;;;;;;;6.63;4.60;;;;;;;12.21;83.01;101960.97;4968671;28;20496;-86
2022/07/02 03:04:07;;;;;;;8.25;4.72;;;;;;;12.20;83.41;101966.34;4971934;28;20069;-86
2022/07/02 03:06:32;;;;;;;5.55;4.53;;;;;;;12.21;83.99;101973.47;4969001;28;20228;-87
2022/07/02 03:08:57;;;;;;;9.38;4.60;;;;;;;12.16;83.59;101970.97;4969262;28;20128;-87
2022/07/02 03:11:23;;;;;;;6.25;4.80;;;;;;;12.14;83.53;101982.63;4971147;28;20117;-87
2022/07/02 03:13:48;;;;;;;6.25;4.55;;;;;;;12.12;84.15;101984.47;4969174;28;20501;-86
2022/07/02 03:16:13;;;;;;;7.82;4.65;;;;;;;12.13;83.73;101980.91;4970136;28;20031;-87
2022/07/02 03:18:38;;;;;;;7.72;4.65;;;;;;;12.06;84.36;101974.06;4967873;28;20034;-87
2022/07/02 03:21:04;;;;;;;9.68;5.35;;;;;;;12.05;84.46;101977.66;4965283;28;20022;-87
2022/07/02 03:23:29;;;;;;;7.82;5.03;;;;;;;12.04;83.65;101982.13;4969896;28;20042;-87
2022/07/02 03:25:54;;;;;;;6.93;4.72;;;;;;;12.06;84.37;101980.25;4967454;28;20026;-87
2022/07/02 03:28:20;;;;;;;7.90;5.00;;;;;;;12.04;84.52;101986.56;4968743;28;20459;-86
2022/07/02 03:30:45;;;;;;;6.32;4.80;;;;;;;12.01;84.36;101981.38;4968542;28;20027;-87
2022/07/02 03:33:10;;;;;;;8.38;4.97;;;;;;;12.04;84.72;101994.56;4968831;28;20207;-87
2022/07/02 03:35:36;;;;;;;7.47;5.20;;;;;;;12.02;84.65;101994.66;4964965;28;20027;-86
2022/07/02 03:38:03;;;;;;;6.57;4.88;;;;;;;11.95;84.65;101993.13;4970418;28;20037;-87
2022/07/02 03:40:29;;;;;;;6.03;4.72;;;;;;;11.92;84.35;101987.94;4969380;28;20058;-87
2022/07/02 03:42:54;;;;;;;6.78;4.95;;;;;;;11.93;84.95;102001.19;4972768;28;20605;-86
2022/07/02 03:45:19;;;;;;;6.40;4.90;;;;;;;11.95;85.10;102001.13;4973083;28;20045;-87
2022/07/02 03:47:44;;;;;;;6.90;4.95;;;;;;;11.89;84.99;101991.56;4980441;28;20034;-87
2022/07/02 03:50:10;;;;;;;8.20;4.90;;;;;;;11.97;85.37;101996.63;4971819;28;20489;-87
2022/07/02 03:52:38;;;;;;;6.88;4.95;;;;;;;11.98;85.41;101997.50;4974370;28;20042;-87
2022/07/02 03:55:04;;;;;;;7.07;5.10;;;;;;;11.94;85.59;101997.59;5001343;28;20019;-86
2022/07/02 03:57:29;;;;;;;10.02;5.05;;;;;;;11.93;85.22;101995.00;4980734;28;20042;-86
2022/07/02 03:59:54;;;;;;;9.98;4.68;;;;;;;11.93;85.53;101998.53;4984116;28;20523;-86
2022/07/02 04:02:20;;;;;;;7.97;5.00;;;;;;;11.90;85.77;101990.63;4979890;28;21889;-87
2022/07/02 04:04:45;;;;;;;6.60;4.95;;;;;;;11.96;85.64;101998.44;4970197;28;20030;-87
2022/07/02 04:07:10;;;;;;;6.65;4.78;;;;;;;11.96;85.93;102006.44;4976173;28;20042;-87
2022/07/02 04:09:36;;;;;;;8.13;4.78;;;;;;;12.00;86.07;102006.28;4975984;28;20547;-87
2022/07/02 04:12:01;;;;;;;7.55;5.00;;;;;;;12.01;85.86;102000.06;4973257;28;20034;-87
2022/07/02 04:14:27;;;;;;;7.07;5.30;;;;;;;12.06;85.49;102006.06;4967553;28;20026;-87
2022/07/02 04:16:52;;;;;;;7.70;5.22;;;;;;;12.07;85.79;102003.34;4961013;28;20025;-87
2022/07/02 04:19:17;;;;;;;6.72;5.40;;;;;;;12.10;85.39;101999.69;4967516;28;20039;-87
2022/07/02 04:21:42;;;;;;;8.50;5.63;;;;;;;12.11;85.51;102006.75;4968330;28;20049;-87
2022/07/02 04:24:08;;;;;;;11.05;6.28;;;;;;;12.14;85.33;102012.00;4970319;28;20113;-87
2022/07/02 04:26:33;;;;;;;9.45;5.90;;;;;;;12.19;85.03;102002.00;4966344;28;20031;-87
2022/07/02 04:28:59;;;;;;;6.65;5.47;;;;;;;12.23;85.24;102011.63;4970859;28;20036;-87
2022/07/02 04:31:24;;;;;;;6.32;5.72;;;;;;;12.27;84.94;102004.38;4968672;28;20035;-87
2022/07/02 04:33:49;;;;;;;6.80;5.25;;;;;;;12.34;85.30;102001.41;4971428;28;20049;-87
2022/07/02 04:36:15;;;;;;;11.43;4.90;;;;;;;12.39;85.08;102003.88;4968479;28;20592;-87
2022/07/02 04:38:40;;;;;;;7.47;5.15;;;;;;;12.43;84.39;102006.38;4967997;28;20058;-87
2022/07/02 04:41:05;;;;;;;9.82;5.05;;;;;;;12.45;84.81;102001.81;4984518;28;20023;-86
2022/07/02 04:43:30;;;;;;;8.65;4.63;;;;;;;12.48;84.67;101995.50;4967189;28;20031;-87
2022/07/02 04:45:56;;;;;;;7.72;4.85;;;;;;;12.53;84.48;102001.50;4965149;28;20033;-86
2022/07/02 04:48:21;;;;;;;7.63;4.70;;;;;;;12.56;84.18;101996.06;4961798;28;20031;-86
2022/07/02 04:50:46;;;;;;;5.22;4.60;;;;;;;12.64;83.75;101998.41;4968418;28;20042;-86
2022/07/02 04:53:11;;;;;;;5.43;4.45;;;;;;;12.69;83.26;101997.28;4971989;28;20023;-87
2022/07/02 04:55:37;;;;;;;5.50;4.43;;;;;;;12.75;82.96;101997.97;4959289;28;20041;-87
2022/07/02 04:58:02;;;;;;;7.07;4.43;;;;;;;12.75;82.90;101987.28;4971081;28;20548;-87
2022/07/02 05:00:27;;;;;;;5.50;4.95;;;;;;;12.92;83.77;102011.50;4962917;28;20031;-87
2022/07/02 05:02:53;;;;;;;8.02;4.88;;;;;;;12.96;82.21;102000.63;4966928;28;20476;-87
2022/07/02 05:05:18;;;;;;;8.60;4.43;;;;;;;12.99;82.00;101993.38;4967324;28;20492;-87
2022/07/02 05:07:43;;;;;;;5.25;4.20;;;;;;;13.11;81.34;102004.41;4968145;28;20035;-87
2022/07/02 05:10:09;;;;;;;9.90;4.68;;;;;;;13.13;80.90;101996.34;4965622;28;20059;-87
2022/07/02 05:12:34;;;;;;;8.15;4.60;;;;;;;13.22;80.36;101998.63;4971416;28;20041;-87
2022/07/02 05:14:59;;;;;;;8.13;4.35;;;;;;;13.27;80.25;101999.31;4967109;28;20031;-86
2022/07/02 05:17:25;;;;;;;7.60;4.43;;;;;;;13.35;80.22;101999.84;4959408;28;20030;-87
2022/07/02 05:19:50;;;;;;;5.80;3.95;;;;;;;13.42;79.09;102006.69;4972497;28;20042;-87
2022/07/02 05:22:15;;;;;;;5.85;3.80;;;;;;;13.47;79.38;102001.13;4962979;28;20026;-86
2022/07/02 05:24:41;;;;;;;5.47;4.07;;;;;;;13.58;78.04;102004.16;4964975;28;20034;-86
2022/07/02 05:27:06;;;;;;;8.50;4.50;;;;;;;13.67;78.12;102008.25;4964353;28;20031;-85
2022/07/02 05:29:31;;;;;;;8.35;4.53;;;;;;;13.72;79.03;102000.88;4968649;28;20030;-87
2022/07/02 05:31:56;;;;;;;7.22;4.20;;;;;;;13.84;77.95;102004.81;4968216;28;20042;-86
2022/07/02 05:34:22;;;;;;;4.20;3.75;;;;;;;13.92;76.83;102002.66;4967653;28;20031;-86
2022/07/02 05:36:50;;;;;;;6.10;4.07;;;;;;;13.99;76.57;102000.53;4961487;28;20043;-86
2022/07/02 05:39:15;;;;;;;6.47;3.75;;;;;;;14.12;75.93;102017.75;4967260;28;20094;-86
2022/07/02 05:41:42;;;;;;;5.07;3.63;;;;;;;14.21;76.49;102014.66;4969021;28;20023;-86
2022/07/02 05:44:07;;;;;;;5.75;3.60;;;;;;;14.31;76.45;102015.09;4963988;28;20391;-85
2022/07/02 05:46:33;;;;;;;4.72;3.72;;;;;;;14.39;75.56;102016.47;4967098;28;20061;-85
2022/07/02 05:48:58;;;;;;;6.95;3.35;;;;;;;14.52;75.94;102024.81;4965531;28;20038;-85
2022/07/02 05:51:23;;;;;;;5.40;3.50;;;;;;;14.64;75.39;102015.31;4967554;28;20027;-85
2022/07/02 05:53:48;;;;;;;7.18;3.72;;;;;;;14.74;74.11;102024.59;4966022;28;20030;-85
2022/07/02 05:56:14;;;;;;;5.28;3.50;;;;;;;14.89;74.55;102018.50;4969349;28;20019;-85
2022/07/02 05:58:39;;;;;;;5.63;3.30;;;;;;;15.03;72.77;102017.78;4979252;28;20395;-85
2022/07/02 06:01:05;;;;;;;8.18;3.47;;;;;;;15.14;72.40;102010.06;4967881;28;20030;-85
2022/07/02 06:03:30;;;;;;;7.72;3.25;;;;;;;15.36;70.85;102017.00;4964361;28;20130;-85
2022/07/02 06:08:39;;;;;;;;;;;;;;;15.73;72.73;102015.94;4969282;28;20069;-84
2022/07/02 06:11:06;;;;;;;3.63;2.40;;;;;;;16.01;67.99;102011.75;4965362;28;20352;-87
2022/07/02 06:13:31;;;;;;;4.07;2.20;;;;;;;16.19;65.08;102013.44;4967556;28;20038;-84
2022/07/02 06:15:57;;;;;;;3.35;2.10;;;;;;;16.47;65.60;102027.97;4969609;28;20081;-85
2022/07/02 06:18:22;;;;;;;6.00;1.95;;;;;;;16.74;63.81;102018.38;4966844;28;20022;-85
2022/07/02 06:20:47;;;;;;;2.88;1.60;;;;;;;16.96;60.97;102020.66;4968986;28;20027;-85
2022/07/02 06:23:12;;;;;;;4.25;1.48;;;;;;;17.21;62.35;102020.06;4968627;28;20029;-86
2022/07/02 06:25:38;;;;;;;3.17;1.65;;;;;;;17.35;59.32;102006.66;4975872;28;20419;-86
2022/07/02 06:28:03;;;;;;;3.45;1.70;;;;;;;17.53;57.03;102007.34;4972272;28;20031;-85
2022/07/02 06:30:29;;;;;;;3.78;1.77;;;;;;;17.73;58.17;102019.59;4971486;28;20024;-85
2022/07/02 06:32:54;;;;;;;3.95;2.50;;;;;;;17.86;56.62;102022.41;4971108;28;20077;-84
2022/07/02 06:35:20;;;;;;;3.45;1.40;;;;;;;17.95;55.58;102024.53;4969790;28;20425;-84
2022/07/02 06:37:45;;;;;;;2.70;1.38;;;;;;;18.12;54.34;102021.63;4973126;28;20105;-85
2022/07/02 06:40:10;;;;;;;2.67;1.30;;;;;;;18.30;54.79;102027.63;4972241;28;20033;-85
2022/07/02 06:42:36;;;;;;;3.58;1.25;;;;;;;18.41;51.77;102022.44;4973218;28;20283;-85
2022/07/02 06:45:02;;;;;;;2.83;1.20;;;;;;;18.59;54.79;102025.75;4973704;28;20239;-85
2022/07/02 06:47:28;;;;;;;3.50;1.20;;;;;;;18.81;53.71;102027.94;4973423;28;20038;-84
2022/07/02 06:49:55;;;;;;;4.72;1.30;;;;;;;18.98;53.44;102017.81;4974526;28;20548;-84
2022/07/02 06:52:20;;;;;;;3.72;1.50;;;;;;;19.19;52.81;102026.28;4972592;28;20722;-84
2022/07/02 06:54:45;;;;;;;3.08;1.20;;;;;;;19.27;49.87;102015.81;4981936;28;20097;-84
2022/07/02 06:57:11;;;;;;;3.78;1.83;;;;;;;19.49;50.61;102020.63;4984781;28;20034;-85
2022/07/02 06:59:37;;;;;;;2.58;0.90;;;;;;;19.58;51.86;102018.13;4990446;28;20507;-85
2022/07/02 07:02:03;;;;;;;3.97;0.95;;;;;;;19.72;48.19;102019.88;4989104;28;20023;-83
2022/07/02 07:04:29;;;;;;;2.60;1.13;;;;;;;19.82;47.69;102015.56;4989191;28;20579;-83
2022/07/02 07:06:56;;;;;;;4.47;1.40;;;;;;;19.95;49.45;102017.41;4998036;28;20032;-84
2022/07/02 07:09:26;;;;;;;2.58;1.00;;;;;;;20.02;46.99;102015.97;4990621;28;20045;-83
2022/07/02 07:11:51;;;;;;;3.25;1.05;;;;;;;20.13;46.89;102016.06;4979516;28;20030;-83
2022/07/02 07:14:18;;;;;;;3.13;1.00;;;;;;;20.31;43.99;102028.22;4977923;28;20046;-84
2022/07/02 07:16:43;;;;;;;3.08;0.98;;;;;;;20.42;45.25;102027.44;4976419;28;20037;-83
2022/07/02 07:19:09;;;;;;;2.13;0.93;;;;;;;20.51;44.87;102020.53;4976312;28;20034;-85
2022/07/02 07:21:40;;;;;;;1.65;1.05;;;;;;;20.55;44.85;102014.75;4980236;28;20070;-84
2022/07/02 07:24:06;;;;;;;4.45;1.40;;;;;;;20.72;45.74;102015.34;4981927;28;20072;-84
2022/07/02 07:26:33;;;;;;;5.03;1.38;;;;;;;20.86;47.99;102021.47;4976363;28;20023;-84
2022/07/02 07:28:58;;;;;;;3.45;1.50;;;;;;;21.04;48.32;102018.31;4979222;28;20061;-84
2022/07/02 07:31:24;;;;;;;2.97;0.90;;;;;;;21.42;47.15;102028.94;4968944;28;20495;-83
2022/07/02 07:33:51;;;;;;;2.42;0.80;;;;;;;21.69;43.53;102023.19;4974807;28;20543;-84
2022/07/02 07:36:18;;;;;;;2.58;0.98;;;;;;;22.02;43.43;102021.47;4975188;28;20109;-84
2022/07/02 07:38:44;;;;;;;4.93;1.15;;;;;;;22.34;42.88;102024.31;4974152;28;20037;-84
2022/07/02 07:41:09;;;;;;;1.73;0.73;;;;;;;22.83;39.15;102031.09;4977250;28;20030;-84
2022/07/02 07:43:35;;;;;;;2.25;0.80;;;;;;;23.09;41.16;102026.19;4969034;28;20039;-84
2022/07/02 07:46:00;;;;;;;1.95;0.98;;;;;;;23.53;41.08;102033.22;4972091;28;20031;-84
2022/07/02 07:48:26;;;;;;;2.90;1.00;;;;;;;23.96;40.11;102025.91;4975388;28;20059;-84
2022/07/02 07:50:51;;;;;;;1.50;0.82;;;;;;;24.46;39.49;102024.09;4968973;28;20078;-86
2022/07/02 07:53:16;;;;;;;2.50;1.15;;;;;;;25.00;40.47;102024.59;4973500;28;20476;-86
2022/07/02 07:55:41;;;;;;;3.25;1.20;;;;;;;25.39;37.17;102025.44;4975783;28;20046;-85
2022/07/02 07:58:07;;;;;;;2.45;0.90;;;;;;;25.72;37.58;102031.38;4972109;28;20113;-86
2022/07/02 08:00:32;;;;;;;3.55;1.00;;;;;;;25.86;35.30;102024.63;4969643;28;20015;-85
2022/07/02 08:02:58;;;;;;;2.42;1.30;;;;;;;25.93;39.03;102025.75;4970030;28;20158;-86
2022/07/02 08:05:23;;;;;;;2.72;0.80;;;;;;;26.45;37.23;102024.19;4974503;28;20026;-85
2022/07/02 08:07:48;;;;;;;2.88;1.15;;;;;;;26.87;34.14;102020.03;4973339;28;20031;-86
2022/07/02 08:10:14;;;;;;;1.95;1.00;;;;;;;27.06;35.46;102022.59;4970801;28;20023;-85
2022/07/02 08:12:41;;;;;;;4.57;1.10;;;;;;;27.40;34.01;102016.41;4978101;28;20034;-86
2022/07/02 08:15:07;;;;;;;2.13;1.00;;;;;;;27.91;33.54;102011.94;4976273;28;20019;-87
2022/07/02 08:17:33;;;;;;;2.38;0.98;;;;;;;28.39;34.08;102007.75;4970785;28;20106;-87
2022/07/02 08:19:58;;;;;;;1.70;1.00;;;;;;;28.68;31.12;102008.16;4972631;28;20117;-86
2022/07/02 08:22:24;;;;;;;3.42;1.10;;;;;;;29.18;35.23;102003.56;4968657;28;20169;-86
2022/07/02 08:24:49;;;;;;;2.75;1.10;;;;;;;29.63;31.01;102002.16;4974691;28;20477;-86
2022/07/02 08:27:15;;;;;;;1.75;0.90;;;;;;;29.93;30.50;102001.41;4968837;28;20062;-87
2022/07/02 08:29:40;;;;;;;2.75;1.08;;;;;;;30.02;29.91;102005.81;4976623;28;20018;-86
2022/07/02 08:32:06;;;;;;;1.75;0.70;;;;;;;30.09;28.89;102007.81;4969424;28;20035;-86
2022/07/02 08:34:32;;;;;;;5.00;1.27;;;;;;;30.10;29.50;102012.28;4975704;28;20034;-86
2022/07/02 08:36:58;;;;;;;3.33;0.95;;;;;;;30.49;29.34;102007.66;4973397;28;20398;-86
2022/07/02 08:39:24;;;;;;;2.05;0.80;;;;;;;31.03;27.86;102009.53;4973477;28;20030;-87
2022/07/02 08:41:50;;;;;;;3.72;1.33;;;;;;;31.31;27.17;102014.47;4971736;28;20436;-84
2022/07/02 08:44:19;;;;;;;2.85;0.95;;;;;;;31.01;26.61;102017.09;4971203;28;20031;-86
2022/07/02 08:46:47;;;;;;;4.25;1.20;;;;;;;31.36;28.27;101996.38;4971100;28;20018;-82
2022/07/02 08:49:23;;;;;;;2.05;0.90;;;;;;;31.70;27.68;102003.25;4975756;28;20412;-83
2022/07/02 08:54:22;;;;;;;3.05;1.00;;;;;;;31.64;26.19;101992.97;4965354;28;20030;-82
2022/07/02 08:56:50;;;;;;;3.13;1.10;;;;;;;32.26;27.02;102009.09;4967977;28;20062;-83
2022/07/02 08:59:16;;;;;;;2.40;0.98;;;;;;;32.90;26.78;102005.56;4971401;28;20023;-83
2022/07/02 09:01:41;;;;;;;2.40;1.00;;;;;;;32.85;24.99;101999.81;4967742;28;20154;-84
2022/07/02 09:04:07;;;;;;;3.17;1.35;;;;;;;33.31;23.98;102003.00;4972279;28;20403;-83
2022/07/02 09:06:36;;;;;;;5.70;1.52;;;;;;;33.34;24.71;101997.09;4972184;28;20451;-84
2022/07/02 09:09:02;;;;;;;2.90;1.00;;;;;;;34.02;25.59;101994.56;4969067;28;20046;-87
2022/07/02 09:11:30;;;;;;;3.15;1.25;;;;;;;34.22;23.92;101997.44;4970509;28;20039;-85
2022/07/02 09:13:56;;;;;;;3.42;0.95;;;;;;;34.27;23.82;101996.81;4974236;28;20076;-84
2022/07/02 09:16:22;;;;;;;4.78;1.35;;;;;;;33.89;23.55;101988.97;4969013;28;20114;-84
2022/07/02 09:18:47;;;;;;;2.63;1.00;;;;;;;34.07;23.09;101988.44;4975879;28;20098;-84
2022/07/02 09:21:13;;;;;;;2.60;0.70;;;;;;;33.97;23.90;101980.53;4985840;28;20023;-88
2022/07/02 09:23:45;;;;;;;3.45;1.20;;;;;;;34.19;23.65;101984.88;5004285;28;20230;-87
2022/07/02 09:26:19;;;;;;;2.83;1.25;;;;;;;34.74;24.06;101979.31;4986169;28;20500;-87
2022/07/02 09:28:55;;;;;;;1.75;0.73;;;;;;;34.89;23.01;101974.41;4971483;28;20022;-86
2022/07/02 09:31:21;;;;;;;2.55;1.00;;;;;;;35.12;23.30;101979.56;4971471;28;20035;-88
2022/07/02 09:33:46;;;;;;;1.92;0.82;;;;;;;35.73;22.25;101970.13;4972578;28;20441;-87
2022/07/02 09:36:12;;;;;;;2.75;0.93;;;;;;;36.26;22.82;101950.53;4964905;28;20023;-88
2022/07/02 09:38:41;;;;;;;2.97;1.02;;;;;;;36.76;22.47;101955.34;4969827;28;20062;-88
2022/07/02 09:41:11;;;;;;;3.65;0.80;;;;;;;36.56;21.41;101959.09;4967773;28;20492;-88
2022/07/02 09:43:38;;;;;;;3.20;1.00;;;;;;;36.28;19.42;101944.75;4967062;28;20288;-88
2022/07/02 09:46:21;;;;;;;3.83;0.90;;;;;;;36.33;21.76;101954.13;4969820;28;20086;-86
2022/07/02 09:48:47;;;;;;;2.53;1.15;;;;;;;36.35;19.98;101951.94;4968886;28;20043;-87
2022/07/02 09:51:14;;;;;;;2.15;0.90;;;;;;;36.68;20.67;101950.06;4966272;28;20489;-86
2022/07/02 09:53:55;;;;;;;3.00;0.95;;;;;;;37.54;19.84;101949.31;4968125;28;20046;-86
2022/07/02 09:56:22;;;;;;;6.00;1.10;;;;;;;37.35;17.99;101940.94;4971210;28;20026;-87
2022/07/02 09:58:49;;;;;;;2.88;0.80;;;;;;;38.02;17.92;101943.84;4969319;28;20027;-86
2022/07/02 10:01:22;;;;;;;2.30;0.90;;;;;;;38.23;18.51;101947.19;4970293;28;20409;-86
2022/07/02 10:03:57;;;;;;;1.42;0.90;;;;;;;38.29;18.42;101941.53;4956880;28;20393;-86
2022/07/02 10:06:22;;;;;;;2.70;0.80;;;;;;;38.57;16.67;101942.84;4962230;28;20093;-85
2022/07/02 10:08:47;;;;;;;1.93;0.70;;;;;;;39.01;17.57;101944.28;4969958;28;20105;-85
2022/07/02 10:11:14;;;;;;;4.07;0.90;;;;;;;39.38;17.00;101949.66;4958940;28;20290;-88
2022/07/02 10:13:41;;;;;;;3.03;0.88;;;;;;;39.68;15.11;101941.13;4972318;28;20385;-86
2022/07/02 10:16:14;;;;;;;2.88;0.80;;;;;;;39.32;17.54;101940.31;4970655;28;20181;-86
2022/07/02 10:18:42;;;;;;;1.45;0.60;;;;;;;38.86;16.36;101946.69;4969049;28;20034;-87
2022/07/02 10:21:10;;;;;;;1.55;0.70;;;;;;;37.47;18.03;101932.72;4971029;28;20023;-87
2022/07/02 10:23:37;;;;;;;2.75;0.90;;;;;;;37.24;18.50;101933.34;4980640;28;20041;-85
2022/07/02 10:26:03;;;;;;;2.75;0.80;;;;;;;36.07;18.35;101927.38;4991708;28;20488;-87
2022/07/02 10:28:28;;;;;;;1.67;0.77;;;;;;;36.74;18.36;101921.41;4993745;28;20050;-86
2022/07/02 10:30:55;;;;;;;3.65;0.65;;;;;;;38.21;16.89;101927.09;4993956;28;20058;-86
2022/07/02 10:33:32;;;;;;;2.00;0.77;;;;;;;35.71;18.18;101930.72;4990049;28;20045;-84
2022/07/02 10:35:59;;;;;;;1.58;0.80;;;;;;;33.55;19.88;101929.09;4981231;28;20042;-86
2022/07/02 10:38:30;;;;;;;1.58;0.77;;;;;;;33.27;22.19;101916.16;4979465;28;20055;-87
2022/07/02 10:40:56;;;;;;;2.67;0.60;;;;;;;33.26;20.86;101924.66;4981241;28;20023;-85
2022/07/02 10:43:22;;;;;;;2.50;0.70;;;;;;;32.93;20.56;101916.97;4975915;28;20023;-86
2022/07/02 10:45:47;;;;;;;3.92;1.05;;;;;;;32.41;21.57;101923.69;4974185;28;20046;-86
2022/07/02 10:48:14;;;;;;;3.45;0.90;;;;;;;31.25;22.73;101915.13;4970501;28;20022;-85
2022/07/02 10:50:42;;;;;;;2.33;0.85;;;;;;;30.79;22.43;101928.13;4969861;28;20496;-86
2022/07/02 10:53:09;;;;;;;1.73;0.57;;;;;;;32.03;22.64;101912.84;4968124;28;20503;-85
2022/07/02 10:55:35;;;;;;;1.42;0.50;;;;;;;34.24;20.48;101917.97;4968983;28;20053;-85
2022/07/02 10:58:04;;;;;;;4.03;0.82;;;;;;;34.27;20.70;101914.75;4968929;28;20027;-83
2022/07/02 11:00:29;;;;;;;1.77;0.80;;;;;;;32.70;21.28;101909.78;4966246;28;20023;-83
2022/07/02 11:02:58;;;;;;;2.10;0.80;;;;;;;31.52;22.66;101901.81;4983196;28;20388;-83
2022/07/02 11:05:24;;;;;;;4.10;0.88;;;;;;;32.08;21.51;101907.63;4968188;28;20034;-82
2022/07/02 11:07:50;;;;;;;1.98;0.68;;;;;;;32.84;22.38;101910.72;4969525;28;20170;-82
2022/07/02 11:10:15;;;;;;;2.45;0.93;;;;;;;33.68;21.22;101905.16;4970770;28;20473;-83
2022/07/02 11:12:59;;;;;;;2.20;0.70;;;;;;;34.76;20.45;101912.72;4970878;28;20035;-83
2022/07/02 11:15:34;;;;;;;3.55;0.60;;;;;;;36.10;18.72;101895.59;4971542;28;20042;-83
2022/07/02 11:18:03;;;;;;;1.50;0.80;;;;;;;37.95;18.10;101900.53;4970743;28;20375;-83
2022/07/02 11:20:29;;;;;;;4.03;1.00;;;;;;;36.64;16.51;101900.59;4970940;28;20026;-82
2022/07/02 11:22:57;;;;;;;2.40;0.77;;;;;;;33.88;20.26;101904.41;4969338;28;20093;-82
2022/07/02 11:25:23;;;;;;;1.50;0.70;;;;;;;32.51;20.52;101902.16;4971645;28;20031;-82
2022/07/02 11:27:59;;;;;;;2.72;0.60;;;;;;;33.05;21.44;101896.06;4967509;28;20389;-83